Time;durP1;ratioP1;P1;durP2;ratioP2;P2;SDS_P1;SDS_P2;PMS_P1;PMS_P2;Temp;Humidity;BMP_temperature;BMP_pressure;BME280_temperature;BME280_humidity;BME280_pressure;Samples;Min_cycle;Max_cycle;Signal;HPM_P1;HPM_P2
2023/04/19 00:02:24;;;;;;;17.13;15.40;;;14.80;89.10;;;;;;5032333;28;20100;-66
2023/04/19 00:04:50;;;;;;;17.77;16.17;;;14.80;89.00;;;;;;5032311;28;20030;-66
2023/04/19 00:07:17;;;;;;;16.95;15.35;;;14.80;89.00;;;;;;5032411;28;20064;-66
2023/04/19 00:09:42;;;;;;;16.52;14.93;;;14.80;89.00;;;;;;5032403;28;20433;-66
2023/04/19 00:12:08;;;;;;;16.90;15.38;;;14.70;89.20;;;;;;5032486;28;20021;-66
2023/04/19 00:14:34;;;;;;;16.42;14.85;;;14.70;89.20;;;;;;5031872;28;20072;-67
2023/04/19 00:16:59;;;;;;;17.55;15.88;;;14.80;89.10;;;;;;5032291;28;20036;-66
2023/04/19 00:19:25;;;;;;;16.90;15.20;;;14.70;89.20;;;;;;5032096;28;20364;-67
2023/04/19 00:21:51;;;;;;;17.25;15.57;;;14.70;89.30;;;;;;5032592;28;20026;-67
2023/04/19 00:24:17;;;;;;;17.25;15.55;;;14.70;89.20;;;;;;5032208;28;20430;-66
2023/04/19 00:26:43;;;;;;;17.48;15.88;;;14.70;89.20;;;;;;5032090;28;20021;-65
2023/04/19 00:29:09;;;;;;;17.23;15.63;;;14.70;89.20;;;;;;5031908;28;20033;-67
2023/04/19 00:31:34;;;;;;;16.15;14.65;;;14.60;89.10;;;;;;5032223;28;20072;-67
2023/04/19 00:34:00;;;;;;;17.42;15.77;;;14.60;89.20;;;;;;5032177;28;20065;-67
2023/04/19 00:36:26;;;;;;;18.00;16.10;;;14.60;89.50;;;;;;5032099;28;20025;-67
2023/04/19 00:38:51;;;;;;;17.67;15.88;;;14.60;89.60;;;;;;5034395;28;20021;-67
2023/04/19 00:41:17;;;;;;;18.20;16.42;;;14.60;89.50;;;;;;5035877;28;20044;-66
2023/04/19 00:43:43;;;;;;;18.50;16.70;;;14.60;89.40;;;;;;5035873;28;20475;-67
2023/04/19 00:46:08;;;;;;;17.13;15.48;;;14.60;89.40;;;;;;5035736;28;20444;-67
2023/04/19 00:48:37;;;;;;;17.75;16.00;;;14.60;89.40;;;;;;5035702;28;20017;-66
2023/04/19 00:51:03;;;;;;;17.45;15.70;;;14.60;89.50;;;;;;5035794;28;20026;-67
2023/04/19 00:53:29;;;;;;;17.55;15.85;;;14.50;89.60;;;;;;5035654;28;20083;-67
2023/04/19 00:55:58;;;;;;;17.85;15.85;;;14.50;89.50;;;;;;5035716;28;20431;-67
2023/04/19 00:58:25;;;;;;;17.85;15.95;;;14.50;89.60;;;;;;5035329;28;20516;-65
2023/04/19 01:00:51;;;;;;;16.98;15.27;;;14.50;89.60;;;;;;5035241;28;20087;-66
2023/04/19 01:03:17;;;;;;;18.17;16.38;;;14.50;89.60;;;;;;5035678;28;20387;-67
2023/04/19 01:05:42;;;;;;;18.73;16.83;;;14.50;89.60;;;;;;5035512;28;20029;-66
2023/04/19 01:08:08;;;;;;;18.33;16.52;;;14.40;89.80;;;;;;5035458;28;20410;-67
2023/04/19 01:10:33;;;;;;;18.10;16.27;;;14.40;90.00;;;;;;5035195;28;20032;-67
2023/04/19 01:12:59;;;;;;;18.20;16.48;;;14.40;90.00;;;;;;5035147;28;20033;-66
2023/04/19 01:15:25;;;;;;;17.98;16.25;;;14.40;90.00;;;;;;5034953;28;20029;-66
2023/04/19 01:17:50;;;;;;;16.85;15.13;;;14.40;90.00;;;;;;5015804;28;20375;-66
2023/04/19 01:20:16;;;;;;;17.20;15.60;;;14.40;90.10;;;;;;5014373;28;20049;-68
2023/04/19 01:22:42;;;;;;;19.17;16.88;;;14.40;90.10;;;;;;5014723;28;20022;-66
2023/04/19 01:25:08;;;;;;;18.60;16.77;;;14.30;90.00;;;;;;5015297;28;20429;-66
2023/04/19 01:27:34;;;;;;;17.50;15.75;;;14.40;90.00;;;;;;5015135;28;20045;-67
2023/04/19 01:29:59;;;;;;;18.75;16.83;;;14.40;90.00;;;;;;5015273;28;20471;-65
2023/04/19 01:32:25;;;;;;;17.27;15.57;;;14.30;90.00;;;;;;5015286;28;20037;-66
2023/04/19 01:34:51;;;;;;;18.38;16.58;;;14.30;90.10;;;;;;5030183;23;20144;-64
2023/04/19 01:37:17;;;;;;;17.63;15.75;;;14.30;90.10;;;;;;5015265;28;20026;-64
2023/04/19 01:39:43;;;;;;;17.52;15.93;;;14.30;90.10;;;;;;5015172;28;20426;-63
2023/04/19 01:42:08;;;;;;;18.92;17.13;;;14.30;90.10;;;;;;5014523;28;20475;-64
2023/04/19 01:44:34;;;;;;;19.17;17.17;;;14.30;90.00;;;;;;5015039;28;20144;-64
2023/04/19 01:46:59;;;;;;;18.67;16.88;;;14.30;90.10;;;;;;5014834;28;20033;-63
2023/04/19 01:49:25;;;;;;;20.00;18.10;;;14.30;90.20;;;;;;5014588;28;20054;-63
2023/04/19 01:51:50;;;;;;;19.83;17.88;;;14.30;90.10;;;;;;5013173;28;20472;-64
2023/04/19 01:54:16;;;;;;;18.75;17.02;;;14.20;90.20;;;;;;5014845;28;20064;-63
2023/04/19 01:56:42;;;;;;;17.63;16.00;;;14.20;90.20;;;;;;5014267;28;20030;-63
2023/04/19 01:59:07;;;;;;;19.30;17.35;;;14.20;90.20;;;;;;5014521;28;20077;-63
2023/04/19 02:01:33;;;;;;;18.77;17.08;;;14.20;90.20;;;;;;5014723;28;20026;-63
2023/04/19 02:03:58;;;;;;;18.83;16.88;;;14.20;90.30;;;;;;5014545;28;20038;-63
2023/04/19 02:06:25;;;;;;;20.23;18.23;;;14.10;90.30;;;;;;5014431;28;20027;-63
2023/04/19 02:08:51;;;;;;;19.40;17.48;;;14.20;90.40;;;;;;5014476;28;20069;-63
2023/04/19 02:11:16;;;;;;;21.25;19.13;;;14.20;90.40;;;;;;5014318;28;20415;-63
2023/04/19 02:13:42;;;;;;;19.48;17.48;;;14.10;90.40;;;;;;5014401;28;20459;-63
2023/04/19 02:16:09;;;;;;;19.17;17.27;;;14.20;90.40;;;;;;5014381;28;20481;-63
2023/04/19 02:18:38;;;;;;;19.27;17.38;;;14.10;90.50;;;;;;5014354;28;20061;-63
2023/04/19 02:21:05;;;;;;;19.95;17.95;;;14.10;90.50;;;;;;5014305;28;20026;-64
2023/04/19 02:23:30;;;;;;;18.88;17.08;;;14.10;90.50;;;;;;5014068;28;20050;-64
2023/04/19 02:25:56;;;;;;;21.48;18.05;;;14.10;90.60;;;;;;5013986;28;20030;-63
2023/04/19 02:28:21;;;;;;;20.70;18.63;;;14.10;90.60;;;;;;5014065;28;20025;-63
2023/04/19 02:30:47;;;;;;;21.30;19.00;;;14.10;90.70;;;;;;5014000;28;20030;-64
2023/04/19 02:33:14;;;;;;;20.40;18.38;;;14.10;90.80;;;;;;5014188;28;20034;-63
2023/04/19 02:35:40;;;;;;;19.63;17.83;;;14.10;90.80;;;;;;5013965;28;20438;-64
2023/04/19 02:38:05;;;;;;;19.00;17.10;;;14.00;90.80;;;;;;5013910;28;20018;-63
2023/04/19 02:40:31;;;;;;;19.90;18.00;;;14.10;90.90;;;;;;5013705;28;20088;-63
2023/04/19 02:42:56;;;;;;;20.88;18.48;;;14.10;90.90;;;;;;5013590;28;20113;-63
2023/04/19 02:45:22;;;;;;;19.83;17.92;;;14.10;90.90;;;;;;5014023;28;20028;-63
2023/04/19 02:47:47;;;;;;;19.92;18.02;;;14.00;90.90;;;;;;5013896;28;20064;-63
2023/04/19 02:50:15;;;;;;;19.02;17.13;;;14.00;91.10;;;;;;5013830;28;20022;-63
2023/04/19 02:52:40;;;;;;;20.70;18.58;;;14.00;91.10;;;;;;5013583;28;20434;-63
2023/04/19 02:55:06;;;;;;;19.92;18.02;;;14.00;91.10;;;;;;5013564;28;20487;-63
2023/04/19 02:57:32;;;;;;;20.02;17.92;;;14.10;91.20;;;;;;5013347;28;20026;-63
2023/04/19 02:59:57;;;;;;;20.15;18.23;;;14.00;91.20;;;;;;5013482;28;20466;-63
2023/04/19 03:02:24;;;;;;;20.05;18.05;;;14.00;91.20;;;;;;5012711;28;20061;-63
2023/04/19 03:04:51;;;;;;;19.63;17.75;;;14.00;91.30;;;;;;5013390;28;20038;-63
2023/04/19 03:07:17;;;;;;;19.48;17.58;;;14.00;91.30;;;;;;5013431;28;20053;-63
2023/04/19 03:09:43;;;;;;;21.00;17.70;;;14.00;91.30;;;;;;5012942;28;20033;-63
2023/04/19 03:12:08;;;;;;;19.65;17.65;;;14.00;91.30;;;;;;5013366;28;20072;-63
2023/04/19 03:14:34;;;;;;;19.90;17.90;;;14.00;91.40;;;;;;5013565;28;20095;-63
2023/04/19 03:17:00;;;;;;;19.85;17.85;;;14.00;91.40;;;;;;5013430;28;20021;-63
2023/04/19 03:19:25;;;;;;;19.25;17.27;;;14.00;91.50;;;;;;5013185;28;20060;-64
2023/04/19 03:21:51;;;;;;;19.45;17.65;;;14.00;91.40;;;;;;5013137;28;20026;-63
2023/04/19 03:24:27;;;;;;;19.15;17.20;;;14.00;91.60;;;;;;5013081;28;20076;-63
2023/04/19 03:26:53;;;;;;;19.70;17.70;;;14.00;91.60;;;;;;5013387;28;20045;-63
2023/04/19 03:29:19;;;;;;;19.60;17.70;;;14.00;91.60;;;;;;5012936;28;20471;-63
2023/04/19 03:31:45;;;;;;;20.05;18.15;;;14.10;91.50;;;;;;5013546;28;20022;-63
2023/04/19 03:34:10;;;;;;;19.23;17.27;;;14.00;91.70;;;;;;5012834;28;20042;-63
2023/04/19 03:36:36;;;;;;;19.58;17.58;;;14.00;91.70;;;;;;5013021;28;20049;-64
2023/04/19 03:39:03;;;;;;;19.25;17.45;;;14.00;91.70;;;;;;5012486;28;20036;-63
2023/04/19 03:41:28;;;;;;;22.42;18.55;;;14.00;91.90;;;;;;5013053;28;20092;-63
2023/04/19 03:43:54;;;;;;;19.38;17.33;;;14.00;91.90;;;;;;5012951;28;20472;-64
2023/04/19 03:46:20;;;;;;;19.55;17.65;;;13.90;91.90;;;;;;5013313;28;20129;-64
2023/04/19 03:48:45;;;;;;;19.27;17.38;;;13.90;92.00;;;;;;5013145;28;20030;-63
2023/04/19 03:51:12;;;;;;;20.23;18.13;;;14.00;92.00;;;;;;5013291;28;20025;-63
2023/04/19 03:53:38;;;;;;;20.20;18.20;;;14.00;92.00;;;;;;5012242;28;20022;-64
2023/04/19 03:56:03;;;;;;;21.25;19.02;;;14.00;92.00;;;;;;5012921;28;20033;-63
2023/04/19 03:58:29;;;;;;;24.77;19.13;;;14.00;92.00;;;;;;5012758;28;20044;-63
2023/04/19 04:00:54;;;;;;;19.33;17.42;;;14.00;92.00;;;;;;5012709;28;20025;-63
2023/04/19 04:03:20;;;;;;;17.60;15.80;;;14.00;92.10;;;;;;5012880;28;20034;-63
2023/04/19 04:05:47;;;;;;;19.75;17.75;;;14.00;92.10;;;;;;5012308;28;20033;-64
2023/04/19 04:08:12;;;;;;;20.45;18.35;;;14.00;92.20;;;;;;5011599;28;20025;-64
2023/04/19 04:10:38;;;;;;;22.70;19.08;;;14.00;92.20;;;;;;5012719;28;20030;-63
2023/04/19 04:13:03;;;;;;;21.10;18.90;;;14.00;92.20;;;;;;5013500;28;20430;-63
2023/04/19 04:15:29;;;;;;;20.42;18.42;;;14.00;92.20;;;;;;5016660;28;20037;-64
2023/04/19 04:17:54;;;;;;;21.40;19.17;;;14.00;92.30;;;;;;5016659;28;20018;-64
2023/04/19 04:20:20;;;;;;;20.15;18.20;;;14.00;92.30;;;;;;5016137;28;20038;-63
2023/04/19 04:22:46;;;;;;;21.70;19.48;;;14.00;92.30;;;;;;5016208;28;20040;-63
2023/04/19 04:25:12;;;;;;;20.17;18.20;;;14.00;92.40;;;;;;5016555;28;20029;-64
2023/04/19 04:27:38;;;;;;;21.10;18.25;;;14.00;92.40;;;;;;5016517;28;20022;-63
2023/04/19 04:30:05;;;;;;;20.48;18.38;;;14.00;92.50;;;;;;5016369;28;20109;-64
2023/04/19 04:32:34;;;;;;;20.92;18.80;;;14.00;92.50;;;;;;5016319;28;20611;-64
2023/04/19 04:35:01;;;;;;;21.52;19.25;;;14.00;92.60;;;;;;5016193;28;20041;-63
2023/04/19 04:37:26;;;;;;;21.65;18.85;;;14.00;92.60;;;;;;5015327;28;20041;-63
2023/04/19 04:39:52;;;;;;;21.33;19.00;;;14.00;92.60;;;;;;5016008;28;20034;-63
2023/04/19 04:42:20;;;;;;;19.63;17.67;;;14.00;92.60;;;;;;5016149;28;20056;-64
2023/04/19 04:44:46;;;;;;;22.20;19.10;;;14.00;92.60;;;;;;5016118;28;20112;-63
2023/04/19 04:47:12;;;;;;;21.48;19.00;;;14.00;92.60;;;;;;5016043;28;20056;-63
2023/04/19 04:49:37;;;;;;;21.05;18.80;;;14.00;92.60;;;;;;5015980;28;20034;-63
2023/04/19 04:52:03;;;;;;;21.42;19.17;;;14.00;92.60;;;;;;5015527;28;20029;-63
2023/04/19 04:54:29;;;;;;;21.00;18.63;;;14.00;92.60;;;;;;5015750;28;20029;-63
2023/04/19 04:56:54;;;;;;;21.25;18.75;;;14.00;92.60;;;;;;5016107;28;20018;-63
2023/04/19 04:59:20;;;;;;;20.63;18.55;;;14.00;92.70;;;;;;5015752;28;20038;-63
2023/04/19 05:01:45;;;;;;;24.95;18.27;;;14.00;92.70;;;;;;5015592;28;20026;-63
2023/04/19 05:04:11;;;;;;;21.00;18.90;;;13.90;92.80;;;;;;5007453;28;20034;-63
2023/04/19 05:06:39;;;;;;;20.83;18.75;;;14.00;92.80;;;;;;5020784;28;20026;-63
2023/04/19 05:09:05;;;;;;;21.98;19.73;;;14.00;92.80;;;;;;5006916;28;20076;-63
2023/04/19 05:11:30;;;;;;;20.17;18.05;;;13.90;92.90;;;;;;5018987;28;20029;-63
2023/04/19 05:13:56;;;;;;;20.45;18.35;;;14.00;93.00;;;;;;5018721;28;20030;-63
2023/04/19 05:16:22;;;;;;;21.27;17.85;;;13.90;93.10;;;;;;5012471;28;20082;-63
2023/04/19 05:18:48;;;;;;;21.63;18.20;;;13.90;93.20;;;;;;5007986;28;20046;-63
2023/04/19 05:21:13;;;;;;;19.90;17.90;;;13.90;93.20;;;;;;5006292;28;20026;-64
2023/04/19 05:23:39;;;;;;;20.63;18.38;;;13.90;93.10;;;;;;4999740;28;20068;-63
2023/04/19 05:26:04;;;;;;;20.90;18.70;;;13.90;93.30;;;;;;5001549;28;20028;-63
2023/04/19 05:28:30;;;;;;;20.88;17.98;;;13.90;93.20;;;;;;5007791;28;20370;-63
2023/04/19 05:30:55;;;;;;;19.77;17.80;;;13.90;93.20;;;;;;5001506;28;20467;-63
2023/04/19 05:33:21;;;;;;;21.25;18.63;;;13.90;93.20;;;;;;5012427;28;20030;-63
2023/04/19 05:35:46;;;;;;;20.33;18.27;;;13.80;93.40;;;;;;5012960;28;20037;-63
2023/04/19 05:38:12;;;;;;;19.60;17.65;;;13.90;93.40;;;;;;5014929;28;20066;-63
2023/04/19 05:40:38;;;;;;;20.40;17.70;;;13.90;93.40;;;;;;5008775;28;20546;-63
2023/04/19 05:43:04;;;;;;;19.98;17.80;;;13.90;93.50;;;;;;5010453;28;20025;-64
2023/04/19 05:45:30;;;;;;;18.73;16.73;;;13.90;93.60;;;;;;5013478;28;20030;-64
2023/04/19 05:47:55;;;;;;;18.95;17.00;;;13.70;93.90;;;;;;5009531;28;20030;-63
2023/04/19 05:50:21;;;;;;;20.08;16.60;;;13.70;93.90;;;;;;4999258;28;20034;-63
2023/04/19 05:52:47;;;;;;;18.85;16.85;;;13.60;94.30;;;;;;5011523;28;20064;-63
2023/04/19 05:55:12;;;;;;;20.08;17.17;;;13.60;94.30;;;;;;5012367;28;20026;-63
2023/04/19 05:57:38;;;;;;;21.35;17.48;;;13.70;94.10;;;;;;5014360;28;20022;-63
2023/04/19 06:00:04;;;;;;;20.02;17.48;;;13.80;94.00;;;;;;5008285;28;20049;-63
2023/04/19 06:02:30;;;;;;;19.33;17.33;;;13.90;93.90;;;;;;5014164;28;20011;-63
2023/04/19 06:04:58;;;;;;;21.98;18.08;;;14.00;93.70;;;;;;5006492;28;20053;-63
2023/04/19 06:07:24;;;;;;;18.23;16.33;;;14.00;93.60;;;;;;5003147;28;20308;-65
2023/04/19 06:09:50;;;;;;;18.88;16.98;;;14.00;93.70;;;;;;5000943;28;20026;-63
2023/04/19 06:12:15;;;;;;;18.60;15.70;;;14.00;93.70;;;;;;5009409;28;20029;-63
2023/04/19 06:14:41;;;;;;;16.90;15.18;;;14.00;93.70;;;;;;5011864;28;20029;-63
2023/04/19 06:17:06;;;;;;;17.30;15.45;;;14.00;93.70;;;;;;5013062;28;20026;-63
2023/04/19 06:19:32;;;;;;;18.38;15.63;;;13.90;93.80;;;;;;4996889;28;20038;-64
2023/04/19 06:21:59;;;;;;;18.05;15.93;;;14.00;93.80;;;;;;4991202;28;20050;-64
2023/04/19 06:24:24;;;;;;;18.10;15.88;;;14.00;94.00;;;;;;4994041;28;20037;-63
2023/04/19 06:26:51;;;;;;;18.27;16.48;;;14.00;93.70;;;;;;4994562;28;20143;-64
2023/04/19 06:29:19;;;;;;;17.95;15.45;;;14.00;93.80;;;;;;4994196;28;20376;-63
2023/04/19 06:31:45;;;;;;;18.23;15.80;;;14.00;93.80;;;;;;4994030;28;20025;-63
2023/04/19 06:34:10;;;;;;;20.42;16.08;;;14.00;93.80;;;;;;4994253;28;20042;-64
2023/04/19 06:36:36;;;;;;;17.60;15.80;;;14.00;93.90;;;;;;4994233;28;20042;-64
2023/04/19 06:39:01;;;;;;;17.75;14.77;;;14.00;93.90;;;;;;4994053;28;20041;-64
2023/04/19 06:41:28;;;;;;;20.50;14.70;;;14.00;93.90;;;;;;4994659;28;20046;-63
2023/04/19 06:43:53;;;;;;;18.42;15.00;;;14.00;93.90;;;;;;4994379;28;20428;-64
2023/04/19 06:46:19;;;;;;;15.65;13.95;;;14.00;93.90;;;;;;4994363;28;20022;-63
2023/04/19 06:48:45;;;;;;;17.00;14.82;;;14.00;93.90;;;;;;4993782;28;20484;-64
2023/04/19 06:51:10;;;;;;;17.33;14.60;;;14.00;93.90;;;;;;4994109;28;20026;-64
2023/04/19 06:53:36;;;;;;;15.88;13.93;;;14.10;94.00;;;;;;4993991;28;20045;-64
2023/04/19 06:56:03;;;;;;;16.77;14.77;;;14.20;94.00;;;;;;4993986;28;20026;-64
2023/04/19 06:58:31;;;;;;;16.60;14.65;;;14.20;93.90;;;;;;4993615;28;20018;-64
2023/04/19 07:00:56;;;;;;;17.48;14.27;;;14.30;93.90;;;;;;4993717;28;20050;-64
2023/04/19 07:03:22;;;;;;;18.15;14.20;;;14.30;93.70;;;;;;4994218;28;20027;-64
2023/04/19 07:05:48;;;;;;;15.43;13.38;;;14.40;93.60;;;;;;4993837;28;20026;-64
2023/04/19 07:08:14;;;;;;;16.52;13.50;;;14.50;93.40;;;;;;4993798;28;20117;-64
2023/04/19 07:10:42;;;;;;;16.48;13.43;;;14.50;93.30;;;;;;4993909;28;20371;-64
2023/04/19 07:13:09;;;;;;;16.13;13.25;;;14.50;93.50;;;;;;4993731;28;20025;-64
2023/04/19 07:15:35;;;;;;;14.75;13.05;;;14.60;93.30;;;;;;4993417;28;20018;-64
2023/04/19 07:18:00;;;;;;;14.13;12.40;;;14.70;93.10;;;;;;4993573;28;20105;-64
2023/04/19 07:20:26;;;;;;;14.93;13.27;;;14.70;93.10;;;;;;4993588;28;20644;-64
2023/04/19 07:22:51;;;;;;;13.02;11.63;;;14.80;93.00;;;;;;4993361;28;20030;-64
2023/04/19 07:25:17;;;;;;;15.38;12.88;;;14.90;92.80;;;;;;4993573;28;20058;-64
2023/04/19 07:27:42;;;;;;;14.13;11.73;;;14.90;92.90;;;;;;4993375;28;20104;-64
2023/04/19 07:30:09;;;;;;;19.02;12.30;;;14.90;92.70;;;;;;4993099;28;20030;-64
2023/04/19 07:32:34;;;;;;;14.32;11.63;;;14.90;92.70;;;;;;4993398;28;20018;-64
2023/04/19 07:35:00;;;;;;;13.27;10.98;;;15.00;92.80;;;;;;4993399;28;20034;-64
2023/04/19 07:37:27;;;;;;;15.23;11.85;;;15.10;92.40;;;;;;4993421;28;20037;-64
2023/04/19 07:39:52;;;;;;;12.88;11.57;;;15.10;92.30;;;;;;4992948;28;20113;-64
2023/04/19 07:42:18;;;;;;;14.05;10.70;;;15.10;92.40;;;;;;4993511;28;20110;-64
2023/04/19 07:44:44;;;;;;;13.60;10.88;;;15.20;92.30;;;;;;4993025;28;20080;-64
2023/04/19 07:47:09;;;;;;;11.75;10.63;;;15.20;92.40;;;;;;4993088;28;20398;-64
2023/04/19 07:49:35;;;;;;;11.55;10.32;;;15.30;92.00;;;;;;4992761;28;20523;-64
2023/04/19 07:52:01;;;;;;;12.05;10.27;;;15.30;92.10;;;;;;4993267;28;20038;-64
2023/04/19 07:54:28;;;;;;;11.15;10.05;;;15.30;91.90;;;;;;4992985;28;20027;-64
2023/04/19 07:56:53;;;;;;;14.55;10.43;;;15.40;91.60;;;;;;4993227;28;20414;-64
2023/04/19 07:59:19;;;;;;;11.02;9.88;;;15.40;91.70;;;;;;4991459;28;20519;-65
2023/04/19 08:01:44;;;;;;;12.00;9.55;;;15.40;91.60;;;;;;4992939;28;20085;-64
2023/04/19 08:04:10;;;;;;;10.52;9.43;;;15.40;92.00;;;;;;4993023;28;20022;-64
2023/04/19 08:06:37;;;;;;;11.98;9.57;;;15.50;91.40;;;;;;4993171;28;20388;-64
2023/04/19 08:09:03;;;;;;;11.55;9.05;;;15.50;91.30;;;;;;4993185;28;20025;-64
2023/04/19 08:11:28;;;;;;;15.48;11.50;;;15.60;91.20;;;;;;4992988;28;20038;-64
2023/04/19 08:13:54;;;;;;;9.68;8.75;;;15.60;91.20;;;;;;4992660;28;20054;-64
2023/04/19 08:16:19;;;;;;;10.80;8.20;;;15.70;90.80;;;;;;4992955;28;20041;-64
2023/04/19 08:18:45;;;;;;;10.90;8.18;;;15.60;90.60;;;;;;4992600;28;20412;-64
2023/04/19 08:21:11;;;;;;;10.02;8.27;;;15.70;90.80;;;;;;4992895;28;20410;-64
2023/04/19 08:23:36;;;;;;;8.93;8.02;;;15.70;90.70;;;;;;4993121;28;20022;-64
2023/04/19 08:26:02;;;;;;;9.68;7.55;;;15.70;90.80;;;;;;4992714;28;20369;-64
2023/04/19 08:28:28;;;;;;;7.95;7.07;;;15.70;90.70;;;;;;4992491;28;20110;-64
2023/04/19 08:30:54;;;;;;;7.55;6.75;;;15.80;90.60;;;;;;4992666;28;20033;-64
2023/04/19 08:33:20;;;;;;;8.75;7.85;;;15.80;90.30;;;;;;4992989;28;20057;-64
2023/04/19 08:35:45;;;;;;;9.32;7.32;;;15.80;90.40;;;;;;4992498;28;20473;-64
2023/04/19 08:38:11;;;;;;;8.75;7.30;;;15.80;90.40;;;;;;4992721;28;20026;-64
2023/04/19 08:40:46;;;;;;;11.43;8.40;;;15.80;90.10;;;;;;4992645;28;20042;-64
2023/04/19 08:43:11;;;;;;;8.85;7.93;;;15.90;90.20;;;;;;4992417;28;20502;-64
2023/04/19 08:45:38;;;;;;;8.73;7.75;;;15.90;90.20;;;;;;4992909;28;20030;-65
2023/04/19 08:48:05;;;;;;;7.53;6.82;;;16.00;89.60;;;;;;4992673;28;20018;-64
2023/04/19 08:50:31;;;;;;;7.90;6.88;;;15.90;89.40;;;;;;4992562;28;20427;-64
2023/04/19 08:52:59;;;;;;;8.13;7.05;;;15.90;89.80;;;;;;4992605;28;20023;-64
2023/04/19 08:55:25;;;;;;;7.88;7.07;;;15.90;89.50;;;;;;4992563;28;20049;-64
2023/04/19 08:57:51;;;;;;;8.13;7.32;;;15.90;89.40;;;;;;4992336;28;20029;-64
2023/04/19 09:00:18;;;;;;;11.32;6.97;;;15.90;89.30;;;;;;4995137;28;20031;-63
2023/04/19 09:02:48;;;;;;;7.55;6.75;;;15.90;89.30;;;;;;4996338;28;20089;-64
2023/04/19 09:05:15;;;;;;;8.43;7.60;;;15.90;89.50;;;;;;4996216;28;20037;-64
2023/04/19 09:07:41;;;;;;;8.63;7.68;;;15.90;89.80;;;;;;4996553;28;20647;-63
2023/04/19 09:10:08;;;;;;;10.63;7.00;;;16.00;89.40;;;;;;4996028;28;20018;-63
2023/04/19 09:12:35;;;;;;;7.80;7.05;;;16.00;89.40;;;;;;4995686;28;20022;-64
2023/04/19 09:15:05;;;;;;;10.68;7.38;;;15.90;89.50;;;;;;4996197;28;20384;-64
2023/04/19 09:17:31;;;;;;;8.93;6.85;;;16.00;90.00;;;;;;4996089;28;20022;-64
2023/04/19 09:19:57;;;;;;;8.50;7.70;;;16.00;89.20;;;;;;4995794;28;20411;-66
2023/04/19 09:22:23;;;;;;;8.35;7.28;;;16.00;89.00;;;;;;4995901;28;20029;-64
2023/04/19 09:24:50;;;;;;;10.02;7.07;;;16.00;88.80;;;;;;4995649;28;20034;-63
2023/04/19 09:27:26;;;;;;;7.28;6.47;;;16.00;88.40;;;;;;4995289;28;20022;-63
2023/04/19 09:29:54;;;;;;;9.48;7.20;;;16.10;88.80;;;;;;4995892;28;20037;-63
2023/04/19 09:32:19;;;;;;;10.43;9.38;;;16.10;88.90;;;;;;4995728;28;20033;-64
2023/04/19 09:34:52;;;;;;;9.77;7.13;;;16.10;88.60;;;;;;4995725;28;20034;-63
2023/04/19 09:37:17;;;;;;;9.35;7.13;;;16.10;88.30;;;;;;4995501;28;20475;-63
2023/04/19 09:39:43;;;;;;;9.57;6.78;;;16.10;88.30;;;;;;4995080;28;20040;-66
2023/04/19 09:42:08;;;;;;;8.57;7.50;;;16.10;88.00;;;;;;4995428;28;20388;-64
2023/04/19 09:44:34;;;;;;;8.15;7.30;;;16.00;87.80;;;;;;4995391;28;20488;-63
2023/04/19 09:47:00;;;;;;;7.70;6.93;;;16.00;88.10;;;;;;4995323;28;20101;-63
2023/04/19 09:49:26;;;;;;;11.02;7.68;;;16.10;87.90;;;;;;4995392;28;20157;-63
2023/04/19 09:51:53;;;;;;;9.05;8.15;;;16.10;88.60;;;;;;4995170;28;20027;-64
2023/04/19 09:54:21;;;;;;;10.07;7.50;;;16.10;88.50;;;;;;4995001;28;20026;-63
2023/04/19 09:56:47;;;;;;;8.85;7.30;;;16.10;88.60;;;;;;4995128;28;20030;-63
2023/04/19 09:59:13;;;;;;;10.32;7.18;;;16.20;88.50;;;;;;4994831;28;20035;-63
2023/04/19 10:01:46;;;;;;;8.68;7.78;;;16.20;88.10;;;;;;4995136;28;20045;-63
2023/04/19 10:04:21;;;;;;;7.43;6.70;;;16.20;87.70;;;;;;4995469;28;20101;-64
2023/04/19 10:06:49;;;;;;;8.40;7.57;;;16.20;88.00;;;;;;4994899;28;20101;-64
2023/04/19 10:09:16;;;;;;;8.32;7.43;;;16.20;87.60;;;;;;4994516;28;20030;-63
2023/04/19 10:11:49;;;;;;;9.50;7.25;;;16.20;87.70;;;;;;4994220;28;20030;-63
2023/04/19 10:14:20;;;;;;;8.35;6.75;;;16.20;87.30;;;;;;4994825;28;20497;-64
2023/04/19 10:16:46;;;;;;;11.70;6.30;;;16.20;87.60;;;;;;5001991;28;20038;-63
2023/04/19 10:19:14;;;;;;;8.23;6.45;;;16.20;87.30;;;;;;5013206;28;20029;-63
2023/04/19 10:21:46;;;;;;;8.68;7.00;;;16.30;87.00;;;;;;5012397;28;20026;-64
2023/04/19 10:24:12;;;;;;;11.52;7.30;;;16.30;86.50;;;;;;5012331;28;20040;-64
2023/04/19 10:27:13;;;;;;;7.50;6.57;;;16.30;86.60;;;;;;5008403;28;20030;-63
2023/04/19 10:29:59;;;;;;;8.73;6.40;;;16.30;86.60;;;;;;5010236;28;20368;-63
2023/04/19 10:32:35;;;;;;;8.05;6.55;;;16.40;86.80;;;;;;5007642;28;20049;-63
2023/04/19 10:35:03;;;;;;;10.35;7.57;;;16.40;86.70;;;;;;5004607;28;20025;-63
2023/04/19 10:37:30;;;;;;;8.70;7.28;;;16.30;85.60;;;;;;5009361;28;20128;-63
2023/04/19 10:39:56;;;;;;;9.60;6.80;;;16.30;85.00;;;;;;5012532;28;20168;-63
2023/04/19 10:42:21;;;;;;;10.35;6.88;;;16.30;85.30;;;;;;5013936;28;20057;-64
2023/04/19 10:45:25;;;;;;;8.20;7.35;;;16.20;85.20;;;;;;5008802;28;20033;-64
2023/04/19 10:47:51;;;;;;;8.93;7.20;;;16.30;85.20;;;;;;5007957;28;20490;-63
2023/04/19 10:50:17;;;;;;;8.00;7.20;;;16.20;85.30;;;;;;5007451;28;20044;-63
2023/04/19 10:52:42;;;;;;;7.88;6.82;;;16.30;85.40;;;;;;5009880;28;20026;-63
2023/04/19 10:55:08;;;;;;;9.00;7.97;;;16.40;85.80;;;;;;5011288;28;20030;-63
2023/04/19 10:58:05;;;;;;;10.90;8.15;;;16.40;85.10;;;;;;5004694;28;20030;-63
2023/04/19 11:00:32;;;;;;;53.50;10.40;;;16.40;84.80;;;;;;5010989;28;20092;-63
2023/04/19 11:02:59;;;;;;;10.57;6.07;;;16.40;84.30;;;;;;5003326;28;20019;-69
2023/04/19 11:05:25;;;;;;;6.78;5.90;;;16.50;85.70;;;;;;5018162;28;20040;-67
2023/04/19 11:07:51;;;;;;;9.02;5.90;;;16.60;86.30;;;;;;5013138;28;20096;-68
2023/04/19 11:10:29;;;;;;;8.40;4.82;;;16.70;86.00;;;;;;5005006;28;20439;-68
2023/04/19 11:12:55;;;;;;;8.20;6.22;;;16.80;86.00;;;;;;5010646;28;20105;-66
2023/04/19 11:15:22;;;;;;;7.60;6.22;;;16.90;84.40;;;;;;5011818;28;20104;-69
2023/04/19 11:17:51;;;;;;;6.93;6.22;;;16.90;84.50;;;;;;5018061;28;20033;-69
2023/04/19 11:20:22;;;;;;;6.40;4.20;;;17.00;84.40;;;;;;5013776;28;20034;-66
2023/04/19 11:22:47;;;;;;;7.18;6.35;;;17.00;86.10;;;;;;5010122;28;20497;-69
2023/04/19 11:25:16;;;;;;;8.80;5.93;;;17.10;83.30;;;;;;5013973;28;20025;-66
2023/04/19 11:27:43;;;;;;;9.82;6.03;;;17.10;83.50;;;;;;5002897;28;20026;-69
2023/04/19 11:30:27;;;;;;;6.47;5.70;;;17.10;83.80;;;;;;5009768;28;20049;-65
2023/04/19 11:32:54;;;;;;;11.75;6.72;;;17.20;82.80;;;;;;5011133;28;20060;-73
2023/04/19 11:35:23;;;;;;;6.60;5.50;;;17.20;82.10;;;;;;5012600;28;20426;-72
2023/04/19 11:37:49;;;;;;;6.05;5.43;;;17.30;81.40;;;;;;5011443;28;20026;-69
2023/04/19 11:40:16;;;;;;;7.47;5.00;;;17.30;80.10;;;;;;5012856;28;20033;-72
2023/04/19 11:42:42;;;;;;;6.80;5.15;;;17.20;78.70;;;;;;5012809;28;20105;-67
2023/04/19 11:45:09;;;;;;;4.72;4.32;;;17.20;80.70;;;;;;5012680;28;20065;-68
2023/04/19 11:47:45;;;;;;;6.90;4.50;;;17.20;78.60;;;;;;5012820;28;20014;-71
2023/04/19 11:50:30;;;;;;;6.80;4.47;;;17.30;79.90;;;;;;5012551;28;20074;-70
2023/04/19 11:52:55;;;;;;;5.00;4.38;;;17.30;78.20;;;;;;5011497;28;20428;-71
2023/04/19 11:55:21;;;;;;;10.23;5.65;;;17.40;78.20;;;;;;5012920;28;20105;-69
2023/04/19 11:57:47;;;;;;;6.32;4.63;;;17.30;77.40;;;;;;5012820;28;20028;-66
2023/04/19 12:00:13;;;;;;;7.28;4.40;;;17.30;75.90;;;;;;5012905;28;20037;-69
2023/04/19 12:02:41;;;;;;;5.60;3.55;;;17.30;76.00;;;;;;5012601;28;20029;-68
2023/04/19 12:05:11;;;;;;;4.75;3.78;;;17.40;75.20;;;;;;5012428;28;20026;-70
2023/04/19 12:07:37;;;;;;;8.07;3.65;;;17.40;73.60;;;;;;5012514;28;20113;-68
2023/04/19 12:10:10;;;;;;;8.18;4.45;;;17.40;75.60;;;;;;5012705;28;20129;-66
2023/04/19 12:12:37;;;;;;;6.13;3.60;;;17.40;72.60;;;;;;5012693;28;20105;-68
2023/04/19 12:15:04;;;;;;;4.50;3.78;;;17.40;73.90;;;;;;5006539;28;20040;-68
2023/04/19 12:17:29;;;;;;;7.10;3.53;;;17.50;72.80;;;;;;4996984;28;20380;-67
2023/04/19 12:19:55;;;;;;;6.25;3.75;;;17.50;73.30;;;;;;5009653;28;20045;-71
2023/04/19 12:22:22;;;;;;;6.20;4.00;;;17.60;72.80;;;;;;5011260;28;20026;-72
2023/04/19 12:24:50;;;;;;;5.47;3.90;;;17.50;72.50;;;;;;5023128;28;20033;-67
2023/04/19 12:27:17;;;;;;;7.38;3.55;;;17.40;72.90;;;;;;5031836;28;20028;-68
2023/04/19 12:29:42;;;;;;;4.85;3.60;;;17.40;73.00;;;;;;5031919;28;20037;-69
2023/04/19 12:32:09;;;;;;;7.45;3.63;;;17.40;70.70;;;;;;5018085;28;20034;-69